John H Macmillan Jr — WDB9907 — position and weather

sailwx.info

Track history (hours):
 
Tides and Currents Weather Stations Pressure Air Temp Water Temp Dewpoint Dewpoint Depression Visibility Wind Speed Wind Dir Waves Ship Positions

John H Macmillan Jr

Owner: American River Transportation Company, St Louis, MO. More information available from US FCC via Universal Licensing System and Coast Guard Vessel Documentation Center.

Last reported at 2016-Apr-30 18:33 UTC. Time now 2016-Apr-30 18:46 UTC.
Position N 32°08' W 091°00'.

Length 55 m.

Type: Towing. MMSI: 366984920.

Date/timePositionNaut miles runAvg speedWind from/ knotsBaromVisibWave heightAir tempDewpointWater temp
2016-Apr-30 18:33N 32°08' W 091°00'5 3.3
2016-Apr-30 17:08N 32°08' W 091°06'4 3.9
2016-Apr-30 16:11N 32°05' W 091°04'3 4.3
2016-Apr-30 15:33N 32°02' W 091°04'  
2016-Apr-25 13:29N 31°58' W 091°11'10 5.3
2016-Apr-25 11:33N 32°08' W 091°06'5 5.2
2016-Apr-25 10:33N 32°08' W 091°00'8 8.2
2016-Apr-25 09:33N 32°16' W 090°57'5 4.5
2016-Apr-25 08:33N 32°21' W 090°58'6 6.4
2016-Apr-25 07:33N 32°26' W 091°02'8 6.9
2016-Apr-25 06:27N 32°33' W 091°06'  
Track history (hours):
 
Tides and Currents Weather Stations Pressure Air Temp Water Temp Dewpoint Dewpoint Depression Visibility Wind Speed Wind Dir Waves Ship Positions

John H Macmillan Jr

Owner: American River Transportation Company, St Louis, MO. More information available from US FCC via Universal Licensing System and Coast Guard Vessel Documentation Center.

Last reported at 2016-Apr-30 18:33 UTC. Time now 2016-Apr-30 18:46 UTC.
Position N 32°08' W 091°00'.

Length 55 m.

Type: Towing. MMSI: 366984920.

Date/timePositionNaut miles runAvg speedWind from/ knotsBaromVisibWave heightAir tempDewpointWater temp
2016-Apr-30 18:33N 32°08' W 091°00'5 3.3
2016-Apr-30 17:08N 32°08' W 091°06'4 3.9
2016-Apr-30 16:11N 32°05' W 091°04'3 4.3
2016-Apr-30 15:33N 32°02' W 091°04'  
2016-Apr-25 13:29N 31°58' W 091°11'10 5.3
2016-Apr-25 11:33N 32°08' W 091°06'5 5.2
2016-Apr-25 10:33N 32°08' W 091°00'8 8.2
2016-Apr-25 09:33N 32°16' W 090°57'5 4.5
2016-Apr-25 08:33N 32°21' W 090°58'6 6.4
2016-Apr-25 07:33N 32°26' W 091°02'8 6.9
2016-Apr-25 06:27N 32°33' W 091°06'  

Dump ship's entire track history